Time;durP1;ratioP1;P1;durP2;ratioP2;P2;SDS_P1;SDS_P2;PMS_P1;PMS_P2;Temp;Humidity;BMP_temperature;BMP_pressure;BME280_temperature;BME280_humidity;BME280_pressure;Samples;Min_cycle;Max_cycle;Signal;HPM_P1;HPM_P2
2023/06/29 00:01:32;;;;;;;7.47;3.10;;;22.30;94.90;;;;;;5081951;28;47528;-66
2023/06/29 00:04:00;;;;;;;9.95;3.70;;;22.20;94.70;;;;;;5079043;28;45214;-66
2023/06/29 00:06:27;;;;;;;9.40;3.40;;;22.30;94.70;;;;;;5082952;28;45423;-65
2023/06/29 00:08:54;;;;;;;7.75;3.50;;;22.30;94.50;;;;;;5079276;28;45316;-67
2023/06/29 00:11:22;;;;;;;6.82;3.35;;;22.30;94.20;;;;;;5082813;28;45323;-65
2023/06/29 00:13:48;;;;;;;7.10;3.05;;;22.30;94.00;;;;;;5080214;28;45388;-66
2023/06/29 00:16:17;;;;;;;3.70;2.78;;;22.30;94.20;;;;;;5081494;28;45412;-66
2023/06/29 00:18:43;;;;;;;11.10;3.72;;;22.30;94.10;;;;;;5079480;28;45383;-66
2023/06/29 00:21:11;;;;;;;9.48;3.30;;;22.30;93.80;;;;;;5080551;28;46887;-66
2023/06/29 00:23:38;;;;;;;6.70;2.80;;;22.30;93.90;;;;;;5081900;28;45410;-66
2023/06/29 00:26:05;;;;;;;11.18;3.55;;;22.30;94.40;;;;;;5078051;28;45323;-66
2023/06/29 00:28:31;;;;;;;6.63;3.47;;;22.30;94.10;;;;;;5080090;28;45400;-66
2023/06/29 00:30:58;;;;;;;7.10;3.22;;;22.30;94.20;;;;;;5083338;28;46324;-65
2023/06/29 00:33:25;;;;;;;9.57;3.20;;;22.30;94.30;;;;;;5082790;28;45285;-66
2023/06/29 00:35:52;;;;;;;4.00;2.15;;;22.30;94.40;;;;;;5082203;28;45480;-68
2023/06/29 00:38:20;;;;;;;3.97;1.80;;;22.60;93.60;;;;;;5083700;28;45324;-69
2023/06/29 00:40:48;;;;;;;4.25;2.38;;;22.90;92.90;;;;;;5083599;28;48207;-69
2023/06/29 00:43:15;;;;;;;3.35;2.03;;;23.10;92.40;;;;;;5083796;28;45616;-69
2023/06/29 00:45:42;;;;;;;2.78;1.75;;;23.20;92.00;;;;;;5082055;27;45464;-69
2023/06/29 00:48:09;;;;;;;2.67;1.70;;;23.30;91.90;;;;;;5083454;28;45190;-69
2023/06/29 00:50:36;;;;;;;3.53;1.90;;;23.40;91.80;;;;;;5081510;28;45495;-69
2023/06/29 00:53:03;;;;;;;2.60;1.73;;;23.40;91.90;;;;;;5082980;28;45422;-70
2023/06/29 00:55:31;;;;;;;3.53;1.85;;;23.40;91.90;;;;;;5080490;28;45328;-69
2023/06/29 00:57:58;;;;;;;2.83;1.60;;;23.40;92.10;;;;;;5081950;28;45463;-70
2023/06/29 01:00:25;;;;;;;4.53;1.80;;;23.40;92.00;;;;;;5078572;28;46607;-70
2023/06/29 01:02:52;;;;;;;3.22;1.58;;;23.40;92.00;;;;;;5079334;28;45345;-70
2023/06/29 01:05:19;;;;;;;2.92;1.80;;;23.40;92.00;;;;;;5077727;28;45486;-71
2023/06/29 01:07:50;;;;;;;3.95;1.90;;;23.50;92.00;;;;;;5076171;28;45455;-70
2023/06/29 01:10:20;;;;;;;3.55;1.95;;;23.50;92.20;;;;;;5075826;28;48274;-70
2023/06/29 01:12:50;;;;;;;2.35;1.50;;;23.50;92.30;;;;;;5082029;28;45332;-70
2023/06/29 01:15:17;;;;;;;2.10;1.58;;;23.50;92.20;;;;;;5083055;28;45383;-70
2023/06/29 01:17:47;;;;;;;2.33;1.52;;;23.50;92.10;;;;;;5082267;27;45303;-70
2023/06/29 01:20:16;;;;;;;3.35;1.95;;;23.50;92.00;;;;;;5081276;28;47990;-70
2023/06/29 01:22:52;;;;;;;2.45;1.67;;;23.50;91.90;;;;;;5082015;28;45392;-70
2023/06/29 01:25:21;;;;;;;2.42;1.67;;;23.50;91.90;;;;;;5082265;28;45558;-70
2023/06/29 01:27:48;;;;;;;2.15;1.40;;;23.50;91.70;;;;;;5080255;28;45355;-70
2023/06/29 01:30:15;;;;;;;3.80;1.63;;;23.50;91.60;;;;;;5081372;28;46912;-70
2023/06/29 01:32:42;;;;;;;4.40;1.90;;;23.50;91.50;;;;;;5082794;28;45333;-70
2023/06/29 01:35:09;;;;;;;2.83;1.70;;;23.50;91.50;;;;;;5080277;28;45550;-70
2023/06/29 01:37:43;;;;;;;4.38;2.05;;;23.50;91.60;;;;;;5082743;28;45361;-70
2023/06/29 01:40:11;;;;;;;2.97;1.60;;;23.50;91.60;;;;;;5081227;28;46272;-70
2023/06/29 01:42:41;;;;;;;3.40;1.48;;;23.50;91.60;;;;;;5081812;28;45534;-70
2023/06/29 01:45:10;;;;;;;3.20;1.80;;;23.50;91.60;;;;;;5082852;28;45304;-69
2023/06/29 01:47:38;;;;;;;2.45;1.60;;;23.50;91.70;;;;;;5075678;28;45233;-69
2023/06/29 01:50:06;;;;;;;1.90;1.50;;;23.50;91.70;;;;;;5080229;28;47542;-70
2023/06/29 01:52:32;;;;;;;2.35;1.58;;;23.50;91.70;;;;;;5081535;28;45443;-69
2023/06/29 01:54:59;;;;;;;2.80;1.90;;;23.50;91.70;;;;;;5083211;28;45423;-69
2023/06/29 01:57:26;;;;;;;3.17;1.58;;;23.50;91.70;;;;;;5082409;28;45314;-69
2023/06/29 01:59:54;;;;;;;2.35;1.63;;;23.40;91.60;;;;;;5081171;28;47692;-69
2023/06/29 02:02:21;;;;;;;1.77;1.52;;;23.50;91.60;;;;;;5082495;28;45340;-69
2023/06/29 02:04:48;;;;;;;3.05;1.70;;;23.40;91.60;;;;;;5081932;28;45425;-69
2023/06/29 02:07:14;;;;;;;2.00;1.50;;;23.40;91.60;;;;;;5080483;28;45410;-69
2023/06/29 02:09:41;;;;;;;2.75;1.75;;;23.50;91.60;;;;;;5079961;28;45458;-70
2023/06/29 02:12:09;;;;;;;1.98;1.40;;;23.50;91.60;;;;;;5082396;28;45357;-69
2023/06/29 02:14:36;;;;;;;1.98;1.45;;;23.50;91.60;;;;;;5082457;28;45438;-70
2023/06/29 02:17:04;;;;;;;3.53;1.65;;;23.50;91.50;;;;;;5081830;28;45296;-69
2023/06/29 02:19:31;;;;;;;3.40;1.80;;;23.50;91.40;;;;;;5073882;28;46449;-69
2023/06/29 02:21:58;;;;;;;2.33;1.60;;;23.50;91.40;;;;;;5080278;28;45323;-70
2023/06/29 02:24:25;;;;;;;3.33;1.70;;;23.50;91.40;;;;;;5082229;28;45379;-70
2023/06/29 02:26:52;;;;;;;2.35;1.52;;;23.50;91.40;;;;;;5081866;28;45489;-69
2023/06/29 02:29:19;;;;;;;3.78;2.00;;;23.50;91.40;;;;;;5080919;28;47655;-69
2023/06/29 02:31:46;;;;;;;2.03;1.73;;;23.50;91.40;;;;;;5082093;28;45353;-69
2023/06/29 02:34:14;;;;;;;3.97;1.95;;;23.50;91.50;;;;;;5078007;28;45341;-70
2023/06/29 02:36:42;;;;;;;1.45;1.30;;;23.40;91.50;;;;;;5075104;28;45373;-70
2023/06/29 02:39:09;;;;;;;3.60;1.80;;;23.50;91.50;;;;;;5073622;28;48033;-69
2023/06/29 02:41:35;;;;;;;3.30;1.80;;;23.50;91.60;;;;;;5081564;28;45693;-69
2023/06/29 02:44:02;;;;;;;2.88;1.73;;;23.50;91.60;;;;;;5082139;28;45349;-69
2023/06/29 02:46:29;;;;;;;1.88;1.50;;;23.40;91.60;;;;;;5082311;28;45408;-69
2023/06/29 02:48:56;;;;;;;1.98;1.50;;;23.40;91.50;;;;;;5079891;28;47560;-69
2023/06/29 02:51:24;;;;;;;2.08;1.52;;;23.50;91.60;;;;;;5079886;28;45373;-69
2023/06/29 02:53:51;;;;;;;1.95;1.33;;;23.50;91.60;;;;;;5067341;28;45473;-69
2023/06/29 02:56:17;;;;;;;1.70;1.50;;;23.40;91.50;;;;;;5082142;28;45475;-69
2023/06/29 02:58:44;;;;;;;2.33;1.55;;;23.40;91.60;;;;;;5080997;28;47192;-69
2023/06/29 03:01:11;;;;;;;2.33;1.60;;;23.40;91.60;;;;;;5080781;28;45393;-70
2023/06/29 03:03:38;;;;;;;2.20;1.40;;;23.50;91.60;;;;;;5081104;28;45278;-69
2023/06/29 03:06:05;;;;;;;2.35;1.70;;;23.40;91.50;;;;;;5080483;28;45435;-69
2023/06/29 03:08:33;;;;;;;1.92;1.50;;;23.40;91.50;;;;;;5082433;27;46408;-70
2023/06/29 03:10:59;;;;;;;2.08;1.67;;;23.50;91.50;;;;;;5084877;28;45343;-69
2023/06/29 03:13:26;;;;;;;2.05;1.45;;;23.50;91.50;;;;;;5085276;28;45348;-69
2023/06/29 03:15:56;;;;;;;3.05;1.65;;;23.50;91.50;;;;;;5083373;28;45174;-69
2023/06/29 03:18:23;;;;;;;1.98;1.45;;;23.50;91.40;;;;;;5077821;28;48570;-70
2023/06/29 03:20:50;;;;;;;3.47;2.10;;;23.50;91.40;;;;;;5081436;28;45495;-69
2023/06/29 03:23:17;;;;;;;2.00;1.55;;;23.40;91.40;;;;;;5083824;28;45531;-69
2023/06/29 03:25:45;;;;;;;2.45;1.20;;;23.50;91.40;;;;;;5084205;28;45369;-69
2023/06/29 03:28:12;;;;;;;2.67;1.70;;;23.50;91.40;;;;;;5084419;28;47998;-69
2023/06/29 03:30:39;;;;;;;2.83;1.40;;;23.50;91.40;;;;;;5082408;27;45270;-69
2023/06/29 03:33:05;;;;;;;2.28;1.88;;;23.50;91.40;;;;;;5083050;28;45601;-69
2023/06/29 03:35:32;;;;;;;2.92;1.67;;;23.50;91.40;;;;;;5084928;28;45462;-70
2023/06/29 03:37:59;;;;;;;2.58;1.45;;;23.50;91.40;;;;;;5084456;28;47536;-69
2023/06/29 03:40:25;;;;;;;2.80;1.95;;;23.50;91.50;;;;;;5084285;28;45393;-69
2023/06/29 03:42:53;;;;;;;2.20;1.50;;;23.50;91.40;;;;;;5084495;28;45588;-69
2023/06/29 03:45:20;;;;;;;2.80;1.60;;;23.50;91.50;;;;;;5083468;28;45608;-69
2023/06/29 03:47:47;;;;;;;2.35;1.63;;;23.40;91.50;;;;;;5080884;28;45398;-70
2023/06/29 03:50:14;;;;;;;2.15;1.50;;;23.50;91.50;;;;;;5082699;28;45440;-70
2023/06/29 03:52:40;;;;;;;2.95;1.77;;;23.40;91.50;;;;;;5084285;28;45510;-69
2023/06/29 03:55:08;;;;;;;2.65;1.88;;;23.40;91.50;;;;;;5082073;28;45609;-70
2023/06/29 03:57:35;;;;;;;3.38;1.70;;;23.40;91.50;;;;;;5080692;28;45362;-69
2023/06/29 04:00:04;;;;;;;1.70;1.48;;;23.40;91.50;;;;;;5081678;28;45335;-69
2023/06/29 04:02:31;;;;;;;2.97;1.83;;;23.40;91.50;;;;;;5081367;28;45574;-70
2023/06/29 04:04:58;;;;;;;3.72;1.70;;;23.40;91.50;;;;;;5082191;28;45522;-69
2023/06/29 04:07:25;;;;;;;3.92;1.90;;;23.40;91.50;;;;;;5081571;28;47507;-69
2023/06/29 04:09:51;;;;;;;1.90;1.23;;;23.40;91.40;;;;;;5074217;28;45323;-69
2023/06/29 04:12:18;;;;;;;2.38;1.60;;;23.40;91.40;;;;;;5080653;28;45299;-71
2023/06/29 04:14:45;;;;;;;2.40;1.52;;;23.40;91.40;;;;;;5079266;28;45507;-72
2023/06/29 04:17:14;;;;;;;2.60;1.65;;;23.40;91.40;;;;;;5082276;28;46711;-72
2023/06/29 04:19:40;;;;;;;2.08;1.63;;;23.40;91.40;;;;;;5080861;27;45616;-71
2023/06/29 04:22:07;;;;;;;2.00;1.38;;;23.40;91.30;;;;;;5076437;28;45393;-70
2023/06/29 04:24:34;;;;;;;2.22;1.52;;;23.40;91.30;;;;;;5082261;28;45422;-70
2023/06/29 04:27:01;;;;;;;2.08;1.30;;;23.40;91.30;;;;;;5081007;28;47990;-71
2023/06/29 04:29:28;;;;;;;2.22;1.50;;;23.40;91.30;;;;;;5082049;28;45632;-70
2023/06/29 04:31:54;;;;;;;2.20;1.77;;;23.40;91.40;;;;;;5083463;28;45380;-69
2023/06/29 04:34:23;;;;;;;1.63;1.52;;;23.50;91.40;;;;;;5081600;28;45334;-69
2023/06/29 04:36:50;;;;;;;2.55;1.70;;;23.40;91.30;;;;;;5082505;28;46335;-69
2023/06/29 04:39:17;;;;;;;2.78;1.80;;;23.40;91.30;;;;;;5081507;28;45497;-69
2023/06/29 04:41:46;;;;;;;3.30;1.70;;;23.50;91.40;;;;;;5082825;28;45467;-69
2023/06/29 04:44:13;;;;;;;3.28;1.92;;;23.40;91.40;;;;;;5076135;28;45187;-70
2023/06/29 04:46:40;;;;;;;2.63;1.73;;;23.40;91.40;;;;;;5083060;28;46643;-70
2023/06/29 04:49:09;;;;;;;2.20;1.70;;;23.40;91.40;;;;;;5080237;28;45307;-69
2023/06/29 04:51:38;;;;;;;2.75;1.70;;;23.40;91.40;;;;;;5078594;28;45291;-69
2023/06/29 04:54:06;;;;;;;2.85;1.80;;;23.40;91.50;;;;;;5082623;27;45280;-69
2023/06/29 04:56:33;;;;;;;2.10;1.80;;;23.40;91.50;;;;;;5083299;28;47689;-70
2023/06/29 04:59:00;;;;;;;1.92;1.65;;;23.50;91.60;;;;;;5081869;28;45462;-70
2023/06/29 05:01:27;;;;;;;2.05;1.70;;;23.40;91.60;;;;;;5082108;28;45495;-70
2023/06/29 05:03:53;;;;;;;2.55;1.70;;;23.40;91.60;;;;;;5074514;28;46387;-70
2023/06/29 05:06:20;;;;;;;1.88;1.67;;;23.40;91.70;;;;;;5071757;28;45364;-69
2023/06/29 05:08:48;;;;;;;2.55;1.85;;;23.40;91.70;;;;;;5074791;28;45309;-70
2023/06/29 05:11:15;;;;;;;3.13;2.00;;;23.40;91.70;;;;;;5078511;27;45869;-69
2023/06/29 05:13:42;;;;;;;2.65;1.80;;;23.40;92.10;;;;;;5080376;28;45555;-69
2023/06/29 05:16:08;;;;;;;3.50;2.25;;;23.40;91.70;;;;;;5077854;28;45319;-70
2023/06/29 05:18:37;;;;;;;3.65;1.75;;;23.40;91.60;;;;;;5076077;28;45422;-69
2023/06/29 05:21:04;;;;;;;3.75;2.20;;;23.40;91.70;;;;;;5082199;28;45501;-69
2023/06/29 05:23:31;;;;;;;3.55;1.95;;;23.40;91.70;;;;;;5082567;28;45342;-69
2023/06/29 05:25:59;;;;;;;2.97;1.90;;;23.40;91.70;;;;;;5074330;28;47936;-69
2023/06/29 05:28:26;;;;;;;2.05;1.55;;;23.50;91.60;;;;;;5080240;28;45386;-69
2023/06/29 05:30:53;;;;;;;3.00;1.90;;;23.50;91.60;;;;;;5076711;28;45459;-69
2023/06/29 05:33:20;;;;;;;2.47;2.05;;;23.50;91.60;;;;;;5077805;27;45478;-69
2023/06/29 05:35:47;;;;;;;2.50;1.98;;;23.50;91.60;;;;;;5077128;28;46269;-69
2023/06/29 05:38:13;;;;;;;3.33;2.10;;;23.50;91.60;;;;;;5078364;28;45414;-69
2023/06/29 05:40:40;;;;;;;2.22;1.67;;;23.50;91.60;;;;;;5074943;28;45501;-69
2023/06/29 05:43:08;;;;;;;2.53;1.98;;;23.50;91.60;;;;;;5082503;28;45395;-69
2023/06/29 05:45:36;;;;;;;2.67;1.90;;;23.50;91.60;;;;;;5080943;28;46393;-69
2023/06/29 05:48:03;;;;;;;3.20;2.00;;;23.50;92.00;;;;;;5076529;28;45268;-69
2023/06/29 05:50:30;;;;;;;2.42;1.92;;;23.50;91.60;;;;;;5074736;28;45264;-69
2023/06/29 05:52:57;;;;;;;2.45;1.80;;;23.50;91.70;;;;;;5081060;27;46040;-69
2023/06/29 05:55:24;;;;;;;3.58;2.17;;;23.50;91.80;;;;;;5078681;27;46332;-69
2023/06/29 05:57:52;;;;;;;2.72;1.92;;;23.50;91.80;;;;;;5086855;27;45422;-69
2023/06/29 06:00:20;;;;;;;3.28;2.25;;;23.50;91.80;;;;;;5081493;28;45437;-69
2023/06/29 06:02:47;;;;;;;3.55;2.15;;;23.50;91.90;;;;;;5084296;27;45389;-69
2023/06/29 06:05:14;;;;;;;2.67;1.90;;;23.40;91.90;;;;;;5082459;27;46304;-69
2023/06/29 06:07:41;;;;;;;3.53;1.90;;;23.50;91.90;;;;;;5088318;27;45748;-69
2023/06/29 06:10:08;;;;;;;2.92;2.05;;;23.50;91.90;;;;;;5081567;27;45279;-70
2023/06/29 06:12:35;;;;;;;3.30;2.00;;;23.50;92.00;;;;;;5090969;27;45416;-71
2023/06/29 06:15:02;;;;;;;2.35;1.88;;;23.50;92.00;;;;;;5078430;28;46598;-71
2023/06/29 06:17:30;;;;;;;4.10;2.10;;;23.50;92.00;;;;;;5085735;27;45362;-72
2023/06/29 06:19:56;;;;;;;3.28;2.00;;;23.50;92.10;;;;;;5079283;27;45551;-72
2023/06/29 06:22:23;;;;;;;2.50;2.15;;;23.50;92.10;;;;;;5084493;27;45439;-71
2023/06/29 06:24:50;;;;;;;4.18;2.03;;;23.50;92.10;;;;;;5086604;27;47164;-72
2023/06/29 06:27:17;;;;;;;3.80;1.80;;;23.50;92.10;;;;;;5082221;27;45396;-70
2023/06/29 06:29:44;;;;;;;3.08;2.10;;;23.50;92.10;;;;;;5088908;27;45373;-71
2023/06/29 06:32:11;;;;;;;3.45;2.28;;;23.50;92.30;;;;;;5085107;27;45385;-72
2023/06/29 06:34:39;;;;;;;2.83;2.25;;;23.50;92.30;;;;;;5077624;27;46571;-72
2023/06/29 06:37:07;;;;;;;4.40;2.08;;;23.50;92.40;;;;;;5082387;27;45285;-72
2023/06/29 06:39:34;;;;;;;2.78;1.95;;;23.50;92.50;;;;;;5084970;27;45362;-71
2023/06/29 06:42:01;;;;;;;5.32;2.22;;;23.50;92.70;;;;;;5081377;27;45380;-71
2023/06/29 06:44:27;;;;;;;4.57;2.72;;;23.50;92.80;;;;;;5085208;28;47259;-70
2023/06/29 06:46:54;;;;;;;3.88;2.55;;;23.50;93.00;;;;;;5081242;28;45428;-70
2023/06/29 06:49:21;;;;;;;3.75;2.20;;;23.50;93.00;;;;;;5085015;28;45434;-70
2023/06/29 06:51:50;;;;;;;3.47;2.60;;;23.50;93.10;;;;;;5079313;27;45454;-72
2023/06/29 06:54:16;;;;;;;3.38;2.50;;;23.50;93.10;;;;;;5086284;27;48468;-72
2023/06/29 06:56:43;;;;;;;3.67;2.45;;;23.50;93.20;;;;;;5085665;27;45566;-72
2023/06/29 06:59:10;;;;;;;5.43;2.63;;;23.50;93.20;;;;;;5084512;28;45337;-71
2023/06/29 07:01:42;;;;;;;4.10;2.40;;;23.50;93.10;;;;;;5082434;28;45462;-71
2023/06/29 07:04:08;;;;;;;4.35;2.50;;;23.50;93.20;;;;;;5084903;28;45423;-70
2023/06/29 07:06:35;;;;;;;2.45;1.90;;;23.50;93.20;;;;;;5084988;28;45460;-71
2023/06/29 07:09:04;;;;;;;3.67;2.20;;;23.50;93.10;;;;;;5084852;28;45431;-72
2023/06/29 07:11:31;;;;;;;2.85;2.50;;;23.50;93.10;;;;;;5089958;27;45759;-70
2023/06/29 07:13:58;;;;;;;3.58;2.20;;;23.50;93.20;;;;;;5088164;27;46653;-70
2023/06/29 07:16:25;;;;;;;3.13;2.45;;;23.50;93.10;;;;;;5084309;27;45273;-70
2023/06/29 07:19:05;;;;;;;4.35;2.78;;;23.50;93.20;;;;;;5085919;27;45320;-70
2023/06/29 07:21:32;;;;;;;5.00;3.00;;;23.50;93.10;;;;;;5084600;28;45591;-70
2023/06/29 07:23:59;;;;;;;2.78;2.50;;;23.50;93.10;;;;;;5079693;27;47774;-71
2023/06/29 07:26:28;;;;;;;5.05;2.80;;;23.50;93.10;;;;;;5085007;27;45274;-70
2023/06/29 07:28:54;;;;;;;4.82;2.45;;;23.50;93.00;;;;;;5083630;28;45337;-70
2023/06/29 07:31:25;;;;;;;3.33;2.45;;;23.50;93.00;;;;;;5085309;28;45563;-70
2023/06/29 07:33:53;;;;;;;4.07;2.45;;;23.50;93.00;;;;;;5081817;28;48224;-70
2023/06/29 07:36:19;;;;;;;4.53;2.55;;;23.50;92.80;;;;;;5084101;28;45357;-70
2023/06/29 07:38:46;;;;;;;3.78;2.63;;;23.50;92.60;;;;;;5083572;28;45517;-69
2023/06/29 07:41:13;;;;;;;3.22;2.28;;;23.50;92.30;;;;;;5082497;28;45530;-69
2023/06/29 07:43:43;;;;;;;4.25;2.60;;;23.50;92.10;;;;;;5085242;27;48006;-69
2023/06/29 07:46:10;;;;;;;3.60;2.38;;;23.50;92.10;;;;;;5083449;28;45527;-70
2023/06/29 07:48:36;;;;;;;4.95;2.53;;;23.50;91.90;;;;;;5084113;28;45492;-69
2023/06/29 07:51:04;;;;;;;3.15;2.40;;;23.50;91.90;;;;;;5084507;28;45284;-73
2023/06/29 07:53:31;;;;;;;4.22;2.72;;;23.50;91.80;;;;;;5082887;27;48282;-72
2023/06/29 07:55:59;;;;;;;3.78;2.67;;;23.50;91.70;;;;;;5086230;27;45416;-70
2023/06/29 07:58:25;;;;;;;4.55;2.58;;;23.50;91.70;;;;;;5084056;27;45300;-72
2023/06/29 08:00:54;;;;;;;3.92;2.70;;;23.50;91.90;;;;;;5086472;27;45400;-72
2023/06/29 08:03:21;;;;;;;3.83;2.58;;;23.50;91.90;;;;;;5083084;28;48366;-71
2023/06/29 08:05:48;;;;;;;4.05;2.65;;;23.50;92.20;;;;;;5084193;27;45428;-70
2023/06/29 08:08:15;;;;;;;3.65;2.53;;;23.50;92.40;;;;;;5076825;27;45355;-70
2023/06/29 08:10:42;;;;;;;4.15;2.90;;;23.50;92.50;;;;;;5084065;28;45403;-70
2023/06/29 08:13:09;;;;;;;4.93;2.78;;;23.50;92.80;;;;;;5083590;28;46351;-70
2023/06/29 08:15:36;;;;;;;4.82;2.80;;;23.50;92.80;;;;;;5085172;27;45353;-70
2023/06/29 08:18:04;;;;;;;3.10;2.25;;;23.50;92.80;;;;;;5089691;27;45521;-70
2023/06/29 08:20:31;;;;;;;3.95;2.63;;;23.50;92.90;;;;;;5083759;28;45348;-69
2023/06/29 08:22:57;;;;;;;3.97;2.45;;;23.50;93.00;;;;;;5083882;28;47481;-70
2023/06/29 08:25:24;;;;;;;3.38;2.28;;;23.50;92.90;;;;;;5083829;28;45280;-70
2023/06/29 08:27:51;;;;;;;3.90;2.55;;;23.50;93.00;;;;;;5084081;28;45274;-70
2023/06/29 08:30:18;;;;;;;4.50;2.53;;;23.50;93.10;;;;;;5078323;28;45373;-70
2023/06/29 08:32:47;;;;;;;5.57;2.70;;;23.50;93.10;;;;;;5080930;28;48061;-70
2023/06/29 08:35:16;;;;;;;3.95;2.50;;;23.50;93.10;;;;;;5081530;28;45427;-69
2023/06/29 08:37:43;;;;;;;4.00;2.45;;;23.50;93.10;;;;;;5080266;28;45411;-69
2023/06/29 08:40:12;;;;;;;5.20;2.78;;;23.50;93.20;;;;;;5081804;28;45575;-69
2023/06/29 08:42:40;;;;;;;3.88;2.30;;;23.60;93.30;;;;;;5087120;27;46573;-72
2023/06/29 08:45:08;;;;;;;5.22;2.67;;;23.60;93.30;;;;;;5083834;28;46409;-72
2023/06/29 08:47:36;;;;;;;4.45;2.55;;;23.60;93.30;;;;;;5080107;28;45303;-72
2023/06/29 08:50:05;;;;;;;3.55;2.42;;;23.50;93.20;;;;;;5076322;28;45460;-71
2023/06/29 08:52:35;;;;;;;4.50;2.35;;;23.50;93.20;;;;;;5078956;28;47523;-71
2023/06/29 08:55:03;;;;;;;3.63;2.50;;;23.60;93.20;;;;;;5083180;28;45350;-70
2023/06/29 08:57:31;;;;;;;3.60;2.25;;;23.60;93.20;;;;;;5081300;28;45471;-70
2023/06/29 08:59:58;;;;;;;5.43;2.90;;;23.60;93.30;;;;;;5078595;28;45404;-70
2023/06/29 09:02:25;;;;;;;4.38;2.78;;;23.60;93.20;;;;;;5080236;28;47281;-70
2023/06/29 09:04:52;;;;;;;3.80;2.80;;;23.60;93.30;;;;;;5083403;27;45318;-72
2023/06/29 09:07:19;;;;;;;3.63;2.55;;;23.60;93.30;;;;;;5080465;28;45404;-72
2023/06/29 09:09:48;;;;;;;5.13;2.72;;;23.60;93.30;;;;;;5080948;28;45362;-72
2023/06/29 09:12:15;;;;;;;4.38;3.08;;;23.60;93.40;;;;;;5079808;28;45810;-71
2023/06/29 09:14:44;;;;;;;4.63;3.00;;;23.60;93.50;;;;;;5081380;28;45361;-70
2023/06/29 09:17:15;;;;;;;4.70;3.08;;;23.60;93.50;;;;;;5080176;27;45406;-70
2023/06/29 09:19:43;;;;;;;4.90;2.80;;;23.60;93.60;;;;;;5082800;28;45542;-70
2023/06/29 09:22:10;;;;;;;4.38;2.72;;;23.60;93.60;;;;;;5081188;28;47884;-71
2023/06/29 09:24:39;;;;;;;4.25;2.70;;;23.60;93.70;;;;;;5082902;28;45264;-70
2023/06/29 09:27:10;;;;;;;4.05;2.80;;;23.60;93.70;;;;;;5078804;28;45431;-70
2023/06/29 09:29:37;;;;;;;3.65;2.67;;;23.60;93.80;;;;;;5075779;27;45437;-70
2023/06/29 09:32:04;;;;;;;5.35;3.42;;;23.60;93.80;;;;;;5082351;28;47266;-70
2023/06/29 09:34:31;;;;;;;5.55;3.30;;;23.60;94.20;;;;;;5082997;28;45313;-69
2023/06/29 09:36:58;;;;;;;5.38;3.30;;;23.60;93.70;;;;;;5080817;28;45264;-70
2023/06/29 09:39:26;;;;;;;5.20;3.20;;;23.60;93.70;;;;;;5081580;28;45571;-69
2023/06/29 09:41:55;;;;;;;4.93;3.45;;;23.60;93.70;;;;;;5082809;28;48166;-70
2023/06/29 09:44:24;;;;;;;5.93;3.28;;;23.60;93.70;;;;;;5082720;28;45412;-69
2023/06/29 09:46:53;;;;;;;5.30;3.28;;;23.60;93.70;;;;;;5081839;28;45435;-70
2023/06/29 09:49:20;;;;;;;5.13;3.20;;;23.60;93.70;;;;;;5074063;28;45579;-70
2023/06/29 09:51:49;;;;;;;3.88;3.03;;;23.60;93.70;;;;;;5081812;28;48678;-70
2023/06/29 09:54:16;;;;;;;4.70;3.22;;;23.60;93.70;;;;;;5082198;27;45333;-70
2023/06/29 09:56:44;;;;;;;6.53;3.80;;;23.60;93.70;;;;;;5086654;27;45340;-70
2023/06/29 09:59:11;;;;;;;5.13;3.25;;;23.60;93.70;;;;;;5077388;27;45554;-70
2023/06/29 10:01:40;;;;;;;5.03;3.67;;;23.60;93.60;;;;;;5083387;27;46327;-70
2023/06/29 10:04:07;;;;;;;4.60;3.10;;;23.60;93.60;;;;;;5080595;28;45339;-70
2023/06/29 10:06:41;;;;;;;5.32;3.72;;;23.60;93.60;;;;;;5080675;28;45504;-69
2023/06/29 10:09:09;;;;;;;5.43;3.53;;;23.60;93.60;;;;;;5082923;27;45233;-70
2023/06/29 10:11:37;;;;;;;6.15;3.70;;;23.60;93.50;;;;;;5080456;27;47345;-70
2023/06/29 10:14:07;;;;;;;4.57;3.35;;;23.60;93.50;;;;;;5081282;28;46283;-70
2023/06/29 10:16:39;;;;;;;4.97;3.40;;;23.60;93.50;;;;;;5082718;27;45326;-70
2023/06/29 10:19:15;;;;;;;5.93;3.80;;;23.60;93.50;;;;;;5080782;27;45402;-70
2023/06/29 10:21:43;;;;;;;6.28;3.70;;;23.60;93.50;;;;;;5084436;28;45477;-70
2023/06/29 10:24:14;;;;;;;5.57;4.05;;;23.60;93.40;;;;;;5079331;28;45344;-70
2023/06/29 10:26:42;;;;;;;4.63;3.42;;;23.60;93.40;;;;;;5081508;28;45246;-70
2023/06/29 10:29:09;;;;;;;6.90;3.75;;;23.60;93.40;;;;;;5080256;28;45601;-70
2023/06/29 10:31:37;;;;;;;6.88;3.83;;;23.60;93.80;;;;;;5083487;28;48850;-70
2023/06/29 10:34:08;;;;;;;5.18;3.55;;;23.60;93.30;;;;;;5083953;28;45610;-70
2023/06/29 10:36:49;;;;;;;5.93;3.95;;;23.60;93.30;;;;;;5085234;28;45307;-70
2023/06/29 10:39:39;;;;;;;5.85;3.65;;;23.60;93.30;;;;;;5084365;28;45425;-70
2023/06/29 10:42:11;;;;;;;4.72;3.55;;;23.60;93.20;;;;;;5083680;28;46276;-70
2023/06/29 10:44:38;;;;;;;4.95;3.25;;;23.60;93.20;;;;;;5085080;28;45975;-70
2023/06/29 10:47:06;;;;;;;5.88;4.32;;;23.60;93.20;;;;;;5084500;28;45273;-70
2023/06/29 10:49:34;;;;;;;5.00;3.47;;;23.60;93.20;;;;;;5085437;28;45436;-70
2023/06/29 10:52:03;;;;;;;6.00;3.88;;;23.60;93.00;;;;;;5085034;28;45534;-69
2023/06/29 10:54:31;;;;;;;5.55;3.78;;;23.60;92.90;;;;;;5085612;28;45427;-69
2023/06/29 10:56:59;;;;;;;6.63;4.00;;;23.60;92.80;;;;;;5084369;28;45423;-70
2023/06/29 10:59:27;;;;;;;6.53;4.25;;;23.60;92.80;;;;;;5084404;28;45424;-70
2023/06/29 11:01:55;;;;;;;5.75;4.13;;;23.60;92.70;;;;;;5083100;28;47089;-70
2023/06/29 11:04:23;;;;;;;6.32;3.78;;;23.60;92.70;;;;;;5085355;28;45288;-70
2023/06/29 11:06:51;;;;;;;6.85;4.63;;;23.60;92.70;;;;;;5081890;28;45374;-70
2023/06/29 11:09:19;;;;;;;7.50;4.40;;;23.60;92.80;;;;;;5084842;28;45234;-70
2023/06/29 11:11:47;;;;;;;6.65;4.75;;;23.60;92.80;;;;;;5083774;28;45391;-70
2023/06/29 11:14:14;;;;;;;6.07;4.45;;;23.60;92.90;;;;;;5085020;28;45376;-69
2023/06/29 11:16:41;;;;;;;6.93;4.45;;;23.60;92.90;;;;;;5084467;28;45289;-70
2023/06/29 11:19:08;;;;;;;7.70;4.13;;;23.60;92.90;;;;;;5084326;28;45352;-70
2023/06/29 11:21:35;;;;;;;7.82;4.90;;;23.60;93.00;;;;;;5084218;28;45410;-70
2023/06/29 11:24:04;;;;;;;6.57;4.22;;;23.60;93.00;;;;;;5081113;27;45466;-70
2023/06/29 11:26:31;;;;;;;6.38;4.40;;;23.60;93.10;;;;;;5085218;27;45365;-70
2023/06/29 11:28:57;;;;;;;7.43;4.95;;;23.60;93.10;;;;;;5084550;27;45416;-70
2023/06/29 11:31:25;;;;;;;6.35;4.45;;;23.60;93.20;;;;;;5091022;27;47490;-70
2023/06/29 11:33:53;;;;;;;7.65;5.25;;;23.60;93.30;;;;;;5084490;27;46074;-70
2023/06/29 11:36:28;;;;;;;7.18;4.82;;;23.60;93.70;;;;;;5084673;27;45264;-69
2023/06/29 11:39:07;;;;;;;8.93;5.68;;;23.60;93.40;;;;;;5090985;27;45610;-70
2023/06/29 11:41:34;;;;;;;7.65;5.15;;;23.60;93.50;;;;;;5083455;28;47612;-69
2023/06/29 11:44:01;;;;;;;8.15;5.20;;;23.60;93.50;;;;;;5084849;28;45342;-69
2023/06/29 11:46:32;;;;;;;7.55;5.05;;;23.60;93.50;;;;;;5084522;28;45316;-70
2023/06/29 11:48:58;;;;;;;8.55;5.07;;;23.60;93.50;;;;;;5080817;28;45582;-69
2023/06/29 11:51:28;;;;;;;9.57;5.70;;;23.60;93.50;;;;;;5086348;27;47465;-69
2023/06/29 11:53:55;;;;;;;6.47;4.68;;;23.60;93.50;;;;;;5082547;27;45435;-70
2023/06/29 11:56:28;;;;;;;9.30;5.80;;;23.60;93.50;;;;;;5083854;28;45261;-69
2023/06/29 11:58:55;;;;;;;9.00;5.55;;;23.60;93.50;;;;;;5083717;28;45614;-69
2023/06/29 12:01:24;;;;;;;9.80;5.95;;;23.60;93.50;;;;;;5088327;27;46613;-70
2023/06/29 12:03:51;;;;;;;8.77;5.53;;;23.70;93.60;;;;;;5083104;28;45510;-69
2023/06/29 12:06:18;;;;;;;9.07;6.05;;;23.60;93.50;;;;;;5084515;28;45328;-69
2023/06/29 12:08:45;;;;;;;8.90;5.60;;;23.60;93.50;;;;;;5083625;28;45258;-70
2023/06/29 12:11:16;;;;;;;7.78;5.40;;;23.70;93.50;;;;;;5083697;28;47722;-69
2023/06/29 12:13:49;;;;;;;8.93;5.70;;;23.60;93.50;;;;;;5083355;28;45415;-69
2023/06/29 12:16:16;;;;;;;7.65;5.35;;;23.60;93.60;;;;;;5082464;28;45364;-70
2023/06/29 12:18:43;;;;;;;8.50;5.18;;;23.70;93.60;;;;;;5082891;28;45594;-69
2023/06/29 12:21:10;;;;;;;8.68;5.95;;;23.60;93.60;;;;;;5083573;28;45480;-70
2023/06/29 12:23:37;;;;;;;8.70;5.85;;;23.70;93.60;;;;;;5086687;27;46083;-70
2023/06/29 12:26:04;;;;;;;10.05;5.65;;;23.60;93.60;;;;;;5072679;28;45257;-70
2023/06/29 12:28:32;;;;;;;11.68;6.00;;;23.70;93.60;;;;;;5080506;28;45497;-70
2023/06/29 12:31:02;;;;;;;9.15;5.65;;;23.70;93.60;;;;;;5074897;28;47088;-69
2023/06/29 12:33:29;;;;;;;8.25;6.03;;;23.60;93.50;;;;;;5080104;28;45382;-70
2023/06/29 12:35:58;;;;;;;8.90;5.45;;;23.70;93.50;;;;;;5077659;28;45421;-70
2023/06/29 12:38:25;;;;;;;9.48;6.10;;;23.60;93.40;;;;;;5079234;28;45320;-70
2023/06/29 12:40:51;;;;;;;7.97;5.63;;;23.60;93.40;;;;;;5073761;27;47100;-70
2023/06/29 12:43:18;;;;;;;9.00;6.47;;;23.60;93.40;;;;;;5077749;28;45329;-70
2023/06/29 12:45:46;;;;;;;8.85;5.88;;;23.70;93.30;;;;;;5074297;28;45270;-70
2023/06/29 12:48:14;;;;;;;7.72;5.63;;;23.60;93.30;;;;;;5072107;27;45448;-70